Green Ice — C6SO4 — position and weather

sailwx.info

Track history (hours):
 
Tides and Currents Weather Stations Pressure Air Temp Water Temp Dewpoint Dewpoint Depression Visibility Wind Speed Wind Dir Waves Ship Positions

Green Ice

Last reported at 2015-May-29 20:28 UTC. Time now 2015-May-30 18:32 UTC.
Position N 63°32' E 009°13'.

Length 86 m; draft 5.6 m.

MMSI: 311411000.

Date/timePositionNaut miles runAvg speedWind from/ knotsBaromVisibWave heightAir tempDewpointWater temp
2015-May-29 20:28N 63°32' E 009°13'1612.2
2015-May-29 19:10N 63°48' E 009°18'1012.2
2015-May-29 18:22N 63°57' E 009°28'1012.5
2015-May-29 17:32N 64°06' E 009°38'1211.8
2015-May-29 16:33N 64°16' E 009°50'3811.6
2015-May-29 13:15N 64°43' E 010°55'912.6
2015-May-29 12:33N 64°49' E 011°09'1312.7
2015-May-29 11:33N 64°58' E 011°32'1211.8
2015-May-29 10:33N 65°07' E 011°49'1312.4
2015-May-29 09:29N 65°19' E 012°00'49 6.2
2015-May-29 01:32N 66°06' E 012°42'12 9.3
2015-May-29 00:13N 66°17' E 012°55'710.8
2015-May-28 23:31N 66°24' E 012°58'10 9.8
2015-May-28 22:29N 66°34' E 013°04'2211.5
2015-May-28 20:33N 66°54' E 013°27'1211.5
2015-May-28 19:33N 67°02' E 013°48'1212.3
2015-May-28 18:33N 67°12' E 014°06'1312.9
2015-May-28 17:34N 67°23' E 014°25'1312.7
2015-May-28 16:33N 67°35' E 014°18'1212.5
2015-May-28 15:33N 67°48' E 014°19'1412.8
2015-May-28 14:30N 67°60' E 014°35'130 7.2
2015-May-27 20:32N 69°33' E 018°44'8 7.5
2015-May-27 19:29N 69°39' E 018°58'0 0.0
2015-May-27 18:32N 69°39' E 018°58'2 1.8
2015-May-27 17:33N 69°38' E 018°57'0 0.1
2015-May-27 16:32N 69°38' E 018°57'0 0.0
2015-May-27 15:29N 69°38' E 018°57'0 0.0
2015-May-27 14:32N 69°38' E 018°57'0 0.0
2015-May-27 13:32N 69°38' E 018°57'0 0.0
2015-May-27 12:26N 69°38' E 018°57'0 0.0
2015-May-27 11:23N 69°38' E 018°57'0 0.0
2015-May-27 10:26N 69°38' E 018°57'5 1.7
2015-May-27 07:31N 69°42' E 019°02'  
2015-May-23 03:26N 69°42' E 019°01'0 0.0
2015-May-23 00:10N 69°42' E 019°01'711.7
2015-May-22 23:33N 69°36' E 018°52'144 8.5
2015-May-22 06:32N 67°49' E 014°25'1712.8
2015-May-22 05:14N 67°33' E 014°20'913.5
2015-May-22 04:33N 67°24' E 014°26'7 6.6
2015-May-22 03:33N 67°17' E 014°24'0 0.0
2015-May-22 02:33N 67°17' E 014°24'0 0.0
2015-May-22 01:33N 67°17' E 014°24'7 6.8
2015-May-22 00:33N 67°14' E 014°09'1413.7
2015-May-21 23:32N 67°02' E 013°50'1612.5
2015-May-21 22:15N 66°51' E 013°19'2312.7
2015-May-21 20:29N 66°30' E 012°58'82 8.8
2015-May-21 11:10N 65°13' E 011°53'813.3
2015-May-21 10:33N 65°05' E 011°47'1313.2
2015-May-21 09:33N 64°55' E 011°25'6 5.7
2015-May-21 08:32N 64°52' E 011°14'5 4.6
2015-May-21 07:33N 64°48' E 011°07'4912.3
2015-May-21 03:33N 64°07' E 010°03'1212.2
2015-May-21 02:34N 63°58' E 009°47'1313.0
2015-May-21 01:33N 63°46' E 009°33'9 7.6
2015-May-21 00:20N 63°39' E 009°46'1012.9
2015-May-20 23:34N 63°30' E 009°56'1212.0
2015-May-20 22:34N 63°28' E 010°23'2 1.8
2015-May-20 21:31N 63°27' E 010°25'0 0.0
2015-May-20 20:31N 63°27' E 010°25'0 0.0
2015-May-20 19:31N 63°27' E 010°25'0 0.0
2015-May-20 18:31N 63°27' E 010°25'0 0.0
2015-May-20 17:31N 63°27' E 010°25'6 6.4
2015-May-20 16:34N 63°28' E 010°12'1211.8
2015-May-20 15:33N 63°35' E 009°49'9 8.5
2015-May-20 14:31N 63°36' E 009°30'  
Track history (hours):
 
Tides and Currents Weather Stations Pressure Air Temp Water Temp Dewpoint Dewpoint Depression Visibility Wind Speed Wind Dir Waves Ship Positions

Green Ice

Last reported at 2015-May-29 20:28 UTC. Time now 2015-May-30 18:32 UTC.
Position N 63°32' E 009°13'.

Length 86 m; draft 5.6 m.

MMSI: 311411000.

Date/timePositionNaut miles runAvg speedWind from/ knotsBaromVisibWave heightAir tempDewpointWater temp
2015-May-29 20:28N 63°32' E 009°13'1612.2
2015-May-29 19:10N 63°48' E 009°18'1012.2
2015-May-29 18:22N 63°57' E 009°28'1012.5
2015-May-29 17:32N 64°06' E 009°38'1211.8
2015-May-29 16:33N 64°16' E 009°50'3811.6
2015-May-29 13:15N 64°43' E 010°55'912.6
2015-May-29 12:33N 64°49' E 011°09'1312.7
2015-May-29 11:33N 64°58' E 011°32'1211.8
2015-May-29 10:33N 65°07' E 011°49'1312.4
2015-May-29 09:29N 65°19' E 012°00'49 6.2
2015-May-29 01:32N 66°06' E 012°42'12 9.3
2015-May-29 00:13N 66°17' E 012°55'710.8
2015-May-28 23:31N 66°24' E 012°58'10 9.8
2015-May-28 22:29N 66°34' E 013°04'2211.5
2015-May-28 20:33N 66°54' E 013°27'1211.5
2015-May-28 19:33N 67°02' E 013°48'1212.3
2015-May-28 18:33N 67°12' E 014°06'1312.9
2015-May-28 17:34N 67°23' E 014°25'1312.7
2015-May-28 16:33N 67°35' E 014°18'1212.5
2015-May-28 15:33N 67°48' E 014°19'1412.8
2015-May-28 14:30N 67°60' E 014°35'130 7.2
2015-May-27 20:32N 69°33' E 018°44'8 7.5
2015-May-27 19:29N 69°39' E 018°58'0 0.0
2015-May-27 18:32N 69°39' E 018°58'2 1.8
2015-May-27 17:33N 69°38' E 018°57'0 0.1
2015-May-27 16:32N 69°38' E 018°57'0 0.0
2015-May-27 15:29N 69°38' E 018°57'0 0.0
2015-May-27 14:32N 69°38' E 018°57'0 0.0
2015-May-27 13:32N 69°38' E 018°57'0 0.0
2015-May-27 12:26N 69°38' E 018°57'0 0.0
2015-May-27 11:23N 69°38' E 018°57'0 0.0
2015-May-27 10:26N 69°38' E 018°57'5 1.7
2015-May-27 07:31N 69°42' E 019°02'  
2015-May-23 03:26N 69°42' E 019°01'0 0.0
2015-May-23 00:10N 69°42' E 019°01'711.7
2015-May-22 23:33N 69°36' E 018°52'144 8.5
2015-May-22 06:32N 67°49' E 014°25'1712.8
2015-May-22 05:14N 67°33' E 014°20'913.5
2015-May-22 04:33N 67°24' E 014°26'7 6.6
2015-May-22 03:33N 67°17' E 014°24'0 0.0
2015-May-22 02:33N 67°17' E 014°24'0 0.0
2015-May-22 01:33N 67°17' E 014°24'7 6.8
2015-May-22 00:33N 67°14' E 014°09'1413.7
2015-May-21 23:32N 67°02' E 013°50'1612.5
2015-May-21 22:15N 66°51' E 013°19'2312.7
2015-May-21 20:29N 66°30' E 012°58'82 8.8
2015-May-21 11:10N 65°13' E 011°53'813.3
2015-May-21 10:33N 65°05' E 011°47'1313.2
2015-May-21 09:33N 64°55' E 011°25'6 5.7
2015-May-21 08:32N 64°52' E 011°14'5 4.6
2015-May-21 07:33N 64°48' E 011°07'4912.3
2015-May-21 03:33N 64°07' E 010°03'1212.2
2015-May-21 02:34N 63°58' E 009°47'1313.0
2015-May-21 01:33N 63°46' E 009°33'9 7.6
2015-May-21 00:20N 63°39' E 009°46'1012.9
2015-May-20 23:34N 63°30' E 009°56'1212.0
2015-May-20 22:34N 63°28' E 010°23'2 1.8
2015-May-20 21:31N 63°27' E 010°25'0 0.0
2015-May-20 20:31N 63°27' E 010°25'0 0.0
2015-May-20 19:31N 63°27' E 010°25'0 0.0
2015-May-20 18:31N 63°27' E 010°25'0 0.0
2015-May-20 17:31N 63°27' E 010°25'6 6.4
2015-May-20 16:34N 63°28' E 010°12'1211.8
2015-May-20 15:33N 63°35' E 009°49'9 8.5
2015-May-20 14:31N 63°36' E 009°30'  

Dump ship's entire track history